Time;durP1;ratioP1;P1;durP2;ratioP2;P2;SDS_P1;SDS_P2;PMS_P1;PMS_P2;Temp;Humidity;BMP_temperature;BMP_pressure;BME280_temperature;BME280_humidity;BME280_pressure;Samples;Min_cycle;Max_cycle;Signal;HPM_P1;HPM_P2
2022/08/30 00:02:42;;;;;;;4.33;3.13;;;;;;;;;;5078070;28;20930;-72
2022/08/30 00:05:09;;;;;;;6.93;3.57;;;;;;;;;;5090035;28;20456;-72
2022/08/30 00:07:37;;;;;;;5.20;3.80;;;;;;;;;;5089974;28;20591;-71
2022/08/30 00:10:04;;;;;;;4.13;3.43;;;;;;;;;;5090353;28;20448;-72
2022/08/30 00:12:32;;;;;;;4.03;2.83;;;;;;;;;;5090618;28;20445;-72
2022/08/30 00:15:00;;;;;;;3.40;2.80;;;;;;;;;;5090061;28;20451;-72
2022/08/30 00:17:27;;;;;;;3.50;3.10;;;;;;;;;;5090113;28;20452;-72
2022/08/30 00:19:54;;;;;;;3.83;3.20;;;;;;;;;;5089500;28;20464;-71
2022/08/30 00:22:21;;;;;;;4.70;3.57;;;;;;;;;;5090609;28;20463;-72
2022/08/30 00:24:49;;;;;;;5.50;3.17;;;;;;;;;;5089303;28;20503;-71
2022/08/30 00:27:16;;;;;;;3.30;2.80;;;;;;;;;;5089507;28;20971;-72
2022/08/30 00:29:45;;;;;;;4.87;3.20;;;;;;;;;;5089882;28;20455;-72
2022/08/30 00:32:12;;;;;;;4.27;2.77;;;;;;;;;;5089422;28;20457;-70
2022/08/30 00:34:40;;;;;;;4.20;3.33;;;;;;;;;;5089449;28;20997;-73
2022/08/30 00:37:07;;;;;;;3.20;2.87;;;;;;;;;;5089405;28;20448;-74
2022/08/30 00:39:34;;;;;;;4.90;3.33;;;;;;;;;;5089574;28;20448;-72
2022/08/30 00:42:01;;;;;;;5.53;2.70;;;;;;;;;;5089495;28;20460;-72
2022/08/30 00:44:28;;;;;;;4.80;3.80;;;;;;;;;;5089791;28;20448;-71
2022/08/30 00:46:56;;;;;;;3.13;2.83;;;;;;;;;;5088828;28;20821;-71
2022/08/30 00:49:24;;;;;;;4.20;2.80;;;;;;;;;;5089325;28;20487;-72
2022/08/30 00:51:51;;;;;;;4.67;3.30;;;;;;;;;;5089670;28;20449;-71
2022/08/30 00:54:18;;;;;;;3.33;2.83;;;;;;;;;;5090083;28;20790;-71
2022/08/30 00:56:46;;;;;;;3.93;3.20;;;;;;;;;;5089896;28;20457;-72
2022/08/30 00:59:13;;;;;;;4.13;3.20;;;;;;;;;;5089522;28;20447;-71
2022/08/30 01:01:41;;;;;;;4.23;3.83;;;;;;;;;;5088839;28;20550;-72
2022/08/30 01:04:10;;;;;;;4.50;2.83;;;;;;;;;;5087243;28;20491;-72
2022/08/30 01:06:38;;;;;;;5.77;3.67;;;;;;;;;;5089340;28;20455;-71
2022/08/30 01:09:06;;;;;;;3.33;2.77;;;;;;;;;;5088503;28;20480;-72
2022/08/30 01:11:34;;;;;;;4.10;3.17;;;;;;;;;;5089260;28;20445;-70
2022/08/30 01:14:02;;;;;;;2.90;2.70;;;;;;;;;;5089316;28;20448;-71
2022/08/30 01:16:30;;;;;;;4.07;3.00;;;;;;;;;;5089361;28;20533;-71
2022/08/30 01:18:58;;;;;;;3.67;3.03;;;;;;;;;;5089105;28;20476;-71
2022/08/30 01:21:29;;;;;;;4.20;3.07;;;;;;;;;;5089644;28;20448;-72
2022/08/30 01:23:58;;;;;;;3.20;2.90;;;;;;;;;;5089199;28;20460;-71
2022/08/30 01:26:26;;;;;;;4.80;3.53;;;;;;;;;;5089419;28;20453;-72
2022/08/30 01:28:55;;;;;;;4.80;3.93;;;;;;;;;;5088942;28;20480;-71
2022/08/30 01:31:22;;;;;;;3.87;3.20;;;;;;;;;;5089125;28;20437;-71
2022/08/30 01:33:50;;;;;;;4.83;3.30;;;;;;;;;;5092739;28;20535;-71
2022/08/30 01:36:19;;;;;;;3.13;2.83;;;;;;;;;;5093571;28;20506;-73
2022/08/30 01:38:48;;;;;;;4.23;3.10;;;;;;;;;;5092810;28;20528;-72
2022/08/30 01:41:18;;;;;;;3.80;2.90;;;;;;;;;;5092609;28;20468;-72
2022/08/30 01:43:46;;;;;;;5.23;3.10;;;;;;;;;;5093419;28;20533;-72
2022/08/30 01:46:15;;;;;;;4.30;3.37;;;;;;;;;;5092644;28;20953;-72
2022/08/30 01:48:42;;;;;;;4.80;2.90;;;;;;;;;;5092417;28;20492;-72
2022/08/30 01:51:11;;;;;;;4.17;3.17;;;;;;;;;;5092027;28;20450;-72
2022/08/30 01:53:38;;;;;;;3.90;2.80;;;;;;;;;;5092549;28;20781;-71
2022/08/30 01:56:06;;;;;;;3.90;3.33;;;;;;;;;;5092753;28;20454;-72
2022/08/30 01:58:34;;;;;;;4.17;3.50;;;;;;;;;;5091928;28;20838;-71
2022/08/30 02:01:02;;;;;;;6.83;3.60;;;;;;;;;;5091804;28;20463;-71
2022/08/30 02:03:33;;;;;;;4.30;3.40;;;;;;;;;;5092738;28;20452;-71
2022/08/30 02:06:03;;;;;;;4.00;3.50;;;;;;;;;;5092019;28;20463;-71
2022/08/30 02:08:30;;;;;;;3.90;3.43;;;;;;;;;;5092068;28;20477;-71
2022/08/30 02:10:58;;;;;;;3.67;3.00;;;;;;;;;;5087437;28;20944;-71
2022/08/30 02:13:26;;;;;;;4.10;3.57;;;;;;;;;;5092251;28;20552;-71
2022/08/30 02:15:54;;;;;;;3.77;3.23;;;;;;;;;;5092135;28;20449;-71
2022/08/30 02:18:22;;;;;;;4.50;3.93;;;;;;;;;;5092082;28;20448;-71
2022/08/30 02:20:49;;;;;;;4.80;3.30;;;;;;;;;;5091047;28;20932;-70
2022/08/30 02:23:16;;;;;;;4.20;2.93;;;;;;;;;;5089098;28;20528;-71
2022/08/30 02:25:43;;;;;;;7.13;3.50;;;;;;;;;;5079700;28;20492;-72
2022/08/30 02:28:11;;;;;;;4.13;3.40;;;;;;;;;;5088353;28;20452;-71
2022/08/30 02:30:38;;;;;;;5.67;3.30;;;;;;;;;;5091619;28;21018;-71
2022/08/30 02:33:06;;;;;;;3.50;3.13;;;;;;;;;;5091586;28;21015;-71
2022/08/30 02:35:33;;;;;;;3.40;3.07;;;;;;;;;;5091535;28;20503;-71
2022/08/30 02:38:01;;;;;;;6.73;3.50;;;;;;;;;;5082710;28;20447;-71
2022/08/30 02:40:28;;;;;;;3.30;3.00;;;;;;;;;;5092118;28;20618;-71
2022/08/30 02:42:55;;;;;;;3.80;3.03;;;;;;;;;;5090849;28;20475;-71
2022/08/30 02:45:23;;;;;;;4.47;3.13;;;;;;;;;;5092001;28;20943;-71
2022/08/30 02:47:50;;;;;;;4.47;3.60;;;;;;;;;;5091361;28;20643;-71
2022/08/30 02:50:19;;;;;;;3.83;3.20;;;;;;;;;;5091628;28;20480;-71
2022/08/30 02:52:46;;;;;;;3.80;3.27;;;;;;;;;;5091948;28;20467;-71
2022/08/30 02:55:13;;;;;;;3.80;3.37;;;;;;;;;;5091460;28;20959;-72
2022/08/30 02:57:40;;;;;;;4.50;3.27;;;;;;;;;;5091175;28;20445;-71
2022/08/30 03:00:09;;;;;;;5.30;3.67;;;;;;;;;;5090837;28;20701;-71
2022/08/30 03:02:36;;;;;;;4.67;3.67;;;;;;;;;;5091326;28;20476;-71
2022/08/30 03:05:05;;;;;;;5.43;2.57;;;;;;;;;;5091238;28;20502;-72
2022/08/30 03:07:34;;;;;;;4.30;2.90;;;;;;;;;;5091257;28;20947;-71
2022/08/30 03:10:01;;;;;;;4.03;2.97;;;;;;;;;;5090879;28;21136;-71
2022/08/30 03:12:28;;;;;;;6.07;3.70;;;;;;;;;;5091215;28;20456;-71
2022/08/30 03:14:55;;;;;;;4.97;3.23;;;;;;;;;;5090541;28;20467;-71
2022/08/30 03:17:22;;;;;;;2.87;2.53;;;;;;;;;;5090541;28;20440;-71
2022/08/30 03:19:50;;;;;;;4.10;3.27;;;;;;;;;;5090840;28;20860;-71
2022/08/30 03:22:17;;;;;;;4.40;3.20;;;;;;;;;;5091077;28;20998;-71
2022/08/30 03:24:45;;;;;;;4.67;3.50;;;;;;;;;;5091156;28;20483;-71
2022/08/30 03:27:13;;;;;;;5.07;3.30;;;;;;;;;;5089723;28;20483;-71
2022/08/30 03:29:40;;;;;;;3.43;2.87;;;;;;;;;;5090182;28;20483;-71
2022/08/30 03:32:07;;;;;;;5.37;3.43;;;;;;;;;;5090456;28;20535;-72
2022/08/30 03:34:34;;;;;;;5.47;3.57;;;;;;;;;;5090446;28;20935;-71
2022/08/30 03:37:01;;;;;;;4.03;3.67;;;;;;;;;;5090321;28;20452;-71
2022/08/30 03:39:29;;;;;;;5.17;4.00;;;;;;;;;;5090423;28;20444;-71
2022/08/30 03:41:57;;;;;;;4.07;2.80;;;;;;;;;;5089835;28;20460;-70
2022/08/30 03:44:24;;;;;;;3.73;2.97;;;;;;;;;;5090572;28;20439;-71
2022/08/30 03:46:51;;;;;;;3.93;3.23;;;;;;;;;;5089674;28;20540;-71
2022/08/30 03:49:19;;;;;;;4.20;3.40;;;;;;;;;;5090584;28;20480;-71
2022/08/30 03:51:47;;;;;;;5.27;3.33;;;;;;;;;;5090627;28;20449;-71
2022/08/30 03:54:14;;;;;;;4.47;3.50;;;;;;;;;;5089302;28;20457;-71
2022/08/30 03:56:42;;;;;;;3.37;3.07;;;;;;;;;;5090051;28;20443;-71
2022/08/30 03:59:10;;;;;;;6.50;3.40;;;;;;;;;;5090170;28;20448;-71
2022/08/30 04:01:37;;;;;;;3.60;3.00;;;;;;;;;;5090824;28;20533;-71
2022/08/30 04:04:05;;;;;;;3.50;3.20;;;;;;;;;;5090221;28;20501;-71
2022/08/30 04:06:32;;;;;;;3.83;3.37;;;;;;;;;;5089972;28;20442;-71
2022/08/30 04:08:59;;;;;;;4.50;3.20;;;;;;;;;;5087480;28;20986;-70
2022/08/30 04:11:26;;;;;;;4.33;3.77;;;;;;;;;;5084529;28;20463;-70
2022/08/30 04:13:55;;;;;;;7.20;4.03;;;;;;;;;;5090020;28;20454;-72
2022/08/30 04:16:23;;;;;;;4.00;3.30;;;;;;;;;;5090245;28;20563;-70
2022/08/30 04:18:50;;;;;;;6.13;4.07;;;;;;;;;;5089872;28;20449;-71
2022/08/30 04:21:18;;;;;;;3.80;3.30;;;;;;;;;;5090292;28;20974;-71
2022/08/30 04:23:46;;;;;;;3.80;2.93;;;;;;;;;;5089888;28;20463;-70
2022/08/30 04:26:13;;;;;;;4.93;3.87;;;;;;;;;;5090477;28;20460;-77
2022/08/30 04:28:40;;;;;;;3.60;3.30;;;;;;;;;;5090044;28;20451;-69
2022/08/30 04:31:08;;;;;;;4.83;3.40;;;;;;;;;;5089657;28;20459;-71
2022/08/30 04:33:37;;;;;;;5.13;3.57;;;;;;;;;;5089777;28;20444;-71
2022/08/30 04:36:05;;;;;;;5.00;3.40;;;;;;;;;;5084408;28;20550;-71
2022/08/30 04:38:32;;;;;;;6.40;3.63;;;;;;;;;;5087333;28;20452;-70
2022/08/30 04:41:00;;;;;;;4.10;3.33;;;;;;;;;;5090023;28;20586;-70
2022/08/30 04:43:27;;;;;;;4.03;3.33;;;;;;;;;;5090432;28;20520;-70
2022/08/30 04:45:56;;;;;;;4.07;3.43;;;;;;;;;;5084742;28;20448;-71
2022/08/30 04:48:23;;;;;;;5.37;4.63;;;;;;;;;;5089462;28;20451;-71
2022/08/30 04:50:52;;;;;;;3.97;3.20;;;;;;;;;;5086897;28;20480;-70
2022/08/30 04:53:19;;;;;;;5.93;3.30;;;;;;;;;;5086916;28;20456;-71
2022/08/30 04:55:46;;;;;;;11.93;4.57;;;;;;;;;;5089706;28;20889;-71
2022/08/30 04:58:13;;;;;;;4.90;3.50;;;;;;;;;;5089343;28;20444;-71
2022/08/30 05:00:43;;;;;;;4.83;3.10;;;;;;;;;;5089432;28;20962;-71
2022/08/30 05:03:11;;;;;;;4.30;3.17;;;;;;;;;;5089299;28;20448;-71
2022/08/30 05:05:41;;;;;;;4.60;3.50;;;;;;;;;;5089930;28;20513;-71
2022/08/30 05:08:11;;;;;;;5.77;3.93;;;;;;;;;;5092535;28;20530;-71
2022/08/30 05:10:39;;;;;;;4.53;3.10;;;;;;;;;;5080364;28;20484;-71
2022/08/30 05:13:06;;;;;;;7.37;3.80;;;;;;;;;;5093473;28;20452;-71
2022/08/30 05:15:34;;;;;;;5.67;3.17;;;;;;;;;;5093477;28;20455;-71
2022/08/30 05:18:01;;;;;;;4.50;3.40;;;;;;;;;;5093608;28;20485;-71
2022/08/30 05:20:28;;;;;;;4.77;3.40;;;;;;;;;;5093388;28;20551;-71
2022/08/30 05:22:55;;;;;;;6.00;4.20;;;;;;;;;;5093303;28;20811;-70
2022/08/30 05:25:25;;;;;;;4.00;3.60;;;;;;;;;;5093473;28;20504;-72
2022/08/30 05:27:52;;;;;;;7.87;4.50;;;;;;;;;;5093236;28;20447;-70
2022/08/30 05:30:19;;;;;;;5.30;3.27;;;;;;;;;;5092840;28;20988;-71
2022/08/30 05:32:47;;;;;;;4.47;3.83;;;;;;;;;;5093618;28;20450;-71
2022/08/30 05:35:15;;;;;;;5.10;4.23;;;;;;;;;;5093574;28;20468;-71
2022/08/30 05:37:42;;;;;;;4.20;3.67;;;;;;;;;;5093277;28;20448;-70
2022/08/30 05:40:10;;;;;;;3.37;3.07;;;;;;;;;;5093010;28;20452;-70
2022/08/30 05:42:40;;;;;;;11.50;6.13;;;;;;;;;;5093139;28;20528;-71
2022/08/30 05:45:08;;;;;;;6.77;3.80;;;;;;;;;;5092740;28;20939;-70
2022/08/30 05:47:35;;;;;;;3.60;3.27;;;;;;;;;;5092952;28;20445;-70
2022/08/30 05:50:02;;;;;;;5.37;3.70;;;;;;;;;;5092712;28;20476;-71
2022/08/30 05:52:29;;;;;;;6.37;3.27;;;;;;;;;;5092475;28;20552;-71
2022/08/30 05:54:58;;;;;;;3.90;3.13;;;;;;;;;;5092763;28;20461;-70
2022/08/30 05:57:26;;;;;;;3.90;3.53;;;;;;;;;;5092817;28;20449;-70
2022/08/30 05:59:55;;;;;;;4.43;3.53;;;;;;;;;;5092609;28;20448;-70
2022/08/30 06:02:22;;;;;;;6.30;3.30;;;;;;;;;;5092343;28;20531;-70
2022/08/30 06:04:49;;;;;;;3.50;3.20;;;;;;;;;;5092419;28;20956;-70
2022/08/30 06:07:16;;;;;;;6.17;4.17;;;;;;;;;;5092459;28;20460;-70
2022/08/30 06:09:43;;;;;;;6.03;4.17;;;;;;;;;;5092646;28;20480;-71
2022/08/30 06:12:10;;;;;;;3.27;2.97;;;;;;;;;;5091732;28;20568;-70
2022/08/30 06:14:38;;;;;;;5.00;4.07;;;;;;;;;;5092755;28;20453;-70
2022/08/30 06:17:06;;;;;;;5.27;4.33;;;;;;;;;;5092117;28;20449;-70
2022/08/30 06:19:33;;;;;;;4.40;3.90;;;;;;;;;;5092275;28;20453;-70
2022/08/30 06:22:01;;;;;;;5.30;3.80;;;;;;;;;;5091401;28;20810;-70
2022/08/30 06:24:27;;;;;;;6.23;4.77;;;21.40;99.90;;;;;;5092235;28;20975;-71
2022/08/30 06:26:54;;;;;;;6.23;4.00;;;18.40;1.00;;;;;;5091650;28;20949;-70
2022/08/30 06:29:22;;;;;;;7.37;4.73;;;18.50;1.00;;;;;;5092556;28;20579;-70
2022/08/30 06:31:49;;;;;;;4.23;3.83;;;18.60;99.90;;;;;;5091503;28;20449;-70
2022/08/30 06:34:18;;;;;;;4.77;3.90;;;18.90;99.90;;;;;;5092311;28;20453;-70
2022/08/30 06:36:45;;;;;;;4.53;3.37;;;19.00;99.90;;;;;;5080113;28;20445;-71
2022/08/30 06:39:12;;;;;;;5.30;4.70;;;19.10;1.00;;;;;;5091661;28;20445;-71
2022/08/30 06:41:40;;;;;;;7.50;5.17;;;19.10;99.90;;;;;;5091837;28;20809;-72
2022/08/30 06:44:07;;;;;;;8.60;4.43;;;19.10;1.00;;;;;;5091590;28;20449;-71
2022/08/30 06:46:37;;;;;;;5.83;4.10;;;19.10;1.00;;;;;;5091946;28;20449;-70
2022/08/30 06:49:05;;;;;;;5.03;4.50;;;19.10;1.00;;;;;;5091558;28;20528;-70
2022/08/30 06:51:35;;;;;;;7.27;4.70;;;19.30;99.90;;;;;;5091260;28;21336;-70
2022/08/30 06:54:04;;;;;;;6.43;4.40;;;19.30;1.00;;;;;;5091425;28;20525;-70
2022/08/30 06:56:31;;;;;;;5.60;4.20;;;19.30;1.00;;;;;;5091947;28;20800;-71
2022/08/30 06:58:58;;;;;;;6.07;4.50;;;19.30;1.00;;;;;;5091356;28;20440;-70
2022/08/30 07:01:27;;;;;;;4.50;3.93;;;19.40;99.90;;;;;;5091347;28;20959;-71
2022/08/30 07:03:55;;;;;;;4.97;4.27;;;19.50;1.00;;;;;;5091134;28;20536;-71
2022/08/30 07:06:22;;;;;;;5.67;3.97;;;19.50;99.90;;;;;;5091806;28;20796;-71
2022/08/30 07:08:51;;;;;;;5.43;4.10;;;19.60;99.90;;;;;;5091257;28;20453;-71
2022/08/30 07:11:26;;;;;;;5.00;3.70;;;19.60;99.90;;;;;;5091198;28;20491;-71
2022/08/30 07:13:53;;;;;;;5.37;4.07;;;19.70;99.90;;;;;;5091103;28;20531;-71
2022/08/30 07:16:20;;;;;;;6.83;5.10;;;19.70;99.90;;;;;;5091305;28;20456;-70
2022/08/30 07:18:53;;;;;;;5.97;4.37;;;19.80;99.90;;;;;;5091196;28;20453;-70
2022/08/30 07:21:24;;;;;;;5.40;4.67;;;19.90;1.00;;;;;;5090976;28;20444;-71
2022/08/30 07:23:53;;;;;;;5.40;4.63;;;;;;;;;;5090670;28;20457;-70
2022/08/30 07:26:23;;;;;;;8.20;6.07;;;20.00;1.00;;;;;;5091275;28;20452;-70
2022/08/30 07:28:50;;;;;;;8.87;5.60;;;;;;;;;;5090884;28;20484;-70
2022/08/30 07:31:18;;;;;;;5.40;4.63;;;;;;;;;;5089827;28;20490;-71
2022/08/30 07:33:45;;;;;;;8.70;4.57;;;;;;;;;;5090991;28;20514;-71
2022/08/30 07:36:12;;;;;;;6.63;4.70;;;;;;;;;;5090395;28;20715;-71
2022/08/30 07:38:40;;;;;;;5.90;4.33;;;;;;;;;;5090912;28;20535;-71
2022/08/30 07:41:08;;;;;;;5.90;5.23;;;;;;;;;;5090250;28;20457;-71
2022/08/30 07:43:36;;;;;;;5.20;4.30;;;;;;;;;;5090778;28;20455;-71
2022/08/30 07:46:04;;;;;;;5.83;5.03;;;;;;;;;;5090573;28;20459;-72
2022/08/30 07:48:31;;;;;;;5.03;4.53;;;;;;;;;;5090732;28;20455;-72
2022/08/30 07:50:58;;;;;;;5.40;4.27;;;;;;;;;;5089851;28;20506;-71
2022/08/30 07:53:25;;;;;;;5.07;4.57;;;;;;;;;;5091067;28;20527;-70
2022/08/30 07:55:53;;;;;;;6.17;4.77;;;;;;;;;;5090076;28;20558;-69
2022/08/30 07:58:21;;;;;;;5.93;4.23;;;;;;;;;;5090638;28;20552;-71
2022/08/30 08:00:49;;;;;;;8.00;4.83;;;;;;;;;;5089958;28;20535;-70
2022/08/30 08:03:16;;;;;;;8.00;5.37;;;;;;;;;;5090664;28;20449;-71
2022/08/30 08:05:44;;;;;;;6.37;4.47;;;;;;;;;;5090609;28;20796;-71
2022/08/30 08:08:12;;;;;;;5.90;4.53;;;;;;;;;;5090085;28;20466;-72
2022/08/30 08:10:40;;;;;;;7.10;4.53;;;;;;;;;;5089967;28;20494;-72
2022/08/30 08:13:08;;;;;;;6.27;4.93;;;;;;;;;;5090142;28;20807;-71
2022/08/30 08:15:36;;;;;;;5.40;4.60;;;;;;;;;;5090135;28;20455;-71
2022/08/30 08:18:04;;;;;;;5.87;4.10;;;;;;;;;;5090103;28;20552;-71
2022/08/30 08:20:31;;;;;;;4.43;4.00;;;;;;;;;;5089936;28;20459;-71
2022/08/30 08:22:58;;;;;;;6.90;4.40;;;;;;;;;;5089835;28;20452;-70
2022/08/30 08:25:25;;;;;;;4.77;4.17;;;;;;;;;;5090271;28;20571;-71
2022/08/30 08:27:53;;;;;;;4.50;3.90;;;;;;;;;;5089755;28;20480;-71
2022/08/30 08:30:21;;;;;;;5.43;4.07;;;;;;;;;;5089740;28;21058;-72
2022/08/30 08:32:50;;;;;;;5.80;4.10;;;;;;;;;;5089715;28;20453;-71
2022/08/30 08:35:18;;;;;;;5.03;4.10;;;;;;;;;;5090340;28;20462;-72
2022/08/30 08:37:45;;;;;;;4.80;4.30;;;;;;;;;;5090154;28;20451;-72
2022/08/30 08:40:15;;;;;;;6.50;4.40;;;;;;;;;;5089675;28;20536;-72
2022/08/30 08:42:49;;;;;;;5.50;4.07;;;;;;;;;;5094128;28;20952;-72
2022/08/30 08:45:19;;;;;;;4.70;3.70;;;;;;;;;;5094575;28;20449;-73
2022/08/30 08:47:54;;;;;;;5.03;4.53;;;;;;;;;;5094414;28;20445;-71
2022/08/30 08:50:24;;;;;;;4.37;3.60;;;;;;;;;;5093707;28;20479;-71
2022/08/30 08:55:41;;;;;;;4.47;4.07;;;;;;;;;;5093892;28;20551;-71
2022/08/30 08:58:08;;;;;;;12.50;4.10;;;;;;;;;;5093684;28;20804;-71
2022/08/30 09:00:35;;;;;;;4.23;3.60;;;;;;;;;;5093416;28;20944;-71
2022/08/30 09:03:03;;;;;;;5.77;3.70;;;;;;;;;;5093553;28;20451;-72
2022/08/30 09:05:35;;;;;;;6.90;4.40;;;;;;;;;;5094010;28;20467;-72
2022/08/30 09:08:03;;;;;;;4.90;3.60;;;;;;;;;;5093625;28;20502;-72
2022/08/30 09:10:32;;;;;;;6.40;4.00;;;;;;;;;;5093345;28;20488;-71
2022/08/30 09:13:00;;;;;;;4.70;4.27;;;;;;;;;;5093476;28;20543;-72
2022/08/30 09:15:28;;;;;;;4.47;3.67;;;;;;;;;;5093580;28;20441;-72
2022/08/30 09:17:56;;;;;;;4.70;4.00;;;;;;;;;;5093312;28;20447;-71
2022/08/30 09:20:28;;;;;;;4.13;3.40;;;;;;;;;;5093502;28;20452;-71
2022/08/30 09:22:57;;;;;;;4.13;3.73;;;;;;;;;;5092862;28;20540;-71
2022/08/30 09:25:26;;;;;;;6.30;4.10;;;;;;;;;;5093721;28;20479;-71
2022/08/30 09:27:54;;;;;;;5.03;3.70;;;;;;;;;;5093000;28;20535;-71
2022/08/30 09:30:23;;;;;;;4.93;4.30;;;;;;;;;;5093283;28;20455;-71
2022/08/30 09:32:52;;;;;;;4.00;3.70;;;;;;;;;;5092982;28;20451;-71
2022/08/30 09:35:20;;;;;;;6.10;4.60;;;;;;;;;;5093546;28;20454;-71
2022/08/30 09:37:52;;;;;;;4.77;4.33;;;;;;;;;;5093189;28;20448;-71
2022/08/30 09:40:25;;;;;;;4.43;4.00;;;;;;;;;;5092918;28;20534;-71
2022/08/30 09:43:00;;;;;;;4.23;3.83;;;;;;;;;;5092671;28;20455;-71
2022/08/30 09:45:30;;;;;;;4.13;3.73;;;;;;;;;;5093147;28;20464;-71
2022/08/30 09:47:58;;;;;;;3.60;3.23;;;;;;;;;;5079676;28;20993;-71
2022/08/30 09:50:26;;;;;;;4.33;4.03;;;;;;;;;;5092472;28;20511;-71
2022/08/30 09:53:00;;;;;;;4.77;3.73;;;;;;;;;;5091593;28;20529;-71
2022/08/30 09:55:32;;;;;;;3.80;3.43;;;;;;;;;;5092526;28;21008;-71
2022/08/30 09:58:04;;;;;;;4.03;3.17;;;;;;;;;;5092609;28;20528;-71
2022/08/30 10:00:35;;;;;;;4.53;3.87;;;;;;;;;;5092293;28;20531;-71
2022/08/30 10:03:07;;;;;;;3.50;3.10;;;;;;;;;;5091930;28;20451;-72
2022/08/30 10:05:38;;;;;;;6.77;3.93;;;;;;;;;;5092512;28;20539;-71
2022/08/30 10:08:12;;;;;;;3.83;3.53;;;;;;;;;;5092244;28;20920;-71
2022/08/30 10:10:47;;;;;;;3.90;3.47;;;;;;;;;;5092181;28;20855;-71
2022/08/30 10:13:25;;;;;;;5.60;3.97;;;;;;;;;;5092567;28;20459;-71
2022/08/30 10:15:58;;;;;;;6.20;3.40;;;;;;;;;;5092124;28;20463;-71
2022/08/30 10:18:31;;;;;;;3.70;3.40;;;;;;;;;;5092827;28;20464;-71
2022/08/30 10:21:04;;;;;;;4.43;3.30;;;;;;;;;;5092112;28;20457;-71
2022/08/30 10:23:33;;;;;;;4.47;3.57;;;;;;;;;;5092210;28;20575;-71
2022/08/30 10:26:11;;;;;;;4.00;3.47;;;;;;;;;;5091753;28;20567;-71
2022/08/30 10:28:40;;;;;;;3.57;3.27;;;;;;;;;;5092495;28;20840;-71
2022/08/30 10:31:14;;;;;;;3.40;3.10;;;;;;;;;;5091298;28;20861;-71
2022/08/30 10:33:43;;;;;;;4.27;3.17;;;;;;;;;;5092155;28;20906;-71
2022/08/30 10:36:11;;;;;;;3.60;3.23;;;;;;;;;;5091636;28;20440;-71
2022/08/30 10:38:39;;;;;;;3.53;2.90;;;;;;;;;;5091855;28;20883;-71
2022/08/30 10:41:12;;;;;;;3.27;3.03;;;;;;;;;;5091294;28;20456;-71
2022/08/30 10:43:44;;;;;;;3.57;3.00;;;;;;;;;;5092143;28;20870;-71
2022/08/30 10:46:15;;;;;;;4.43;3.20;;;;;;;;;;5092069;28;20448;-71
2022/08/30 10:48:43;;;;;;;3.47;3.10;;;;;;;;;;5092266;28;20523;-71
2022/08/30 10:51:13;;;;;;;2.97;2.60;;;;;;;;;;5090911;28;20484;-71
2022/08/30 10:53:42;;;;;;;3.17;2.60;;;;;;;;;;5091715;28;20451;-71
2022/08/30 10:56:12;;;;;;;3.20;2.70;;;;;;;;;;5091478;28;20810;-71
2022/08/30 10:58:39;;;;;;;3.50;3.10;;;;;;;;;;5091768;28;20489;-71
2022/08/30 11:01:24;;;;;;;3.83;2.67;;;;;;;;;;5091014;28;20448;-71
2022/08/30 11:04:09;;;;;;;3.53;3.23;;;;;;;;;;5091057;28;20444;-71
2022/08/30 11:06:41;;;;;;;3.10;2.80;;;;;;;;;;5091008;28;21002;-71
2022/08/30 11:09:21;;;;;;;2.90;2.60;;;;;;;;;;5091165;28;20691;-71
2022/08/30 11:11:59;;;;;;;3.83;3.10;;;;;;;;;;5090862;28;20483;-70
2022/08/30 11:14:27;;;;;;;3.83;3.43;;;;;;;;;;5091797;28;20519;-71
2022/08/30 11:16:55;;;;;;;3.50;3.20;;;;;;;;;;5091010;28;20454;-71
2022/08/30 11:19:25;;;;;;;3.70;3.30;;;;;;;;;;5091405;28;20939;-71
2022/08/30 11:21:53;;;;;;;3.20;2.90;;;;;;;;;;5090305;28;20444;-71
2022/08/30 11:24:21;;;;;;;3.90;3.60;;;;;;;;;;5091108;28;20480;-71
2022/08/30 11:27:06;;;;;;;4.23;3.83;;;;;;;;;;5090794;28;20462;-70
2022/08/30 11:29:39;;;;;;;3.83;3.50;;;;;;;;;;5091168;28;20536;-71
2022/08/30 11:32:21;;;;;;;3.37;3.07;;;;;;;;;;5090692;28;20582;-71
2022/08/30 11:34:55;;;;;;;5.10;4.13;;;;;;;;;;5090867;28;20532;-71
2022/08/30 11:37:34;;;;;;;7.23;3.90;;;;;;;;;;5091210;28;20452;-72
2022/08/30 11:40:02;;;;;;;3.00;2.80;;;;;;;;;;5078942;28;20527;-71
2022/08/30 11:42:38;;;;;;;2.93;2.73;;;;;;;;;;5090893;28;20505;-71
2022/08/30 11:45:23;;;;;;;3.50;3.20;;;;;;;;;;5090668;28;20202;-71
2022/08/30 11:47:53;;;;;;;3.27;2.97;;;;;;;;;;5090374;28;20642;-71
2022/08/30 11:50:22;;;;;;;4.13;3.37;;;;;;;;;;5090620;28;20206;-71
2022/08/30 11:52:56;;;;;;;3.50;3.20;;;;;;;;;;5090358;28;20482;-71
2022/08/30 11:55:34;;;;;;;4.03;3.63;;;;;;;;;;5090628;28;20521;-71
2022/08/30 11:58:09;;;;;;;3.37;3.13;;;;;;;;;;5090237;28;20748;-71
2022/08/30 12:00:39;;;;;;;3.40;3.10;;;;;;;;;;5089792;28;20665;-71
2022/08/30 12:03:08;;;;;;;3.50;3.20;;;;;;;;;;5090071;28;20542;-71
2022/08/30 12:05:49;;;;;;;3.83;3.27;;;;;;;;;;5090374;28;20610;-71
2022/08/30 12:08:43;;;;;;;3.37;3.07;;;;;;;;;;5090158;28;20212;-72
2022/08/30 12:11:25;;;;;;;3.63;3.30;;;;;;;;;;5032908;28;20208;-72
2022/08/30 12:13:53;;;;;;;3.60;3.30;;;;;;;;;;5089381;28;20967;-71
2022/08/30 12:16:22;;;;;;;7.03;2.93;;;;;;;;;;5090029;28;20217;-71
2022/08/30 12:18:51;;;;;;;3.80;3.50;;;;;;;;;;5089812;28;20538;-71
2022/08/30 12:21:27;;;;;;;3.40;3.10;;;;;;;;;;5089911;28;20200;-71
2022/08/30 12:23:57;;;;;;;4.10;3.80;;;;;;;;;;5089418;28;20209;-71
2022/08/30 12:26:31;;;;;;;3.50;3.20;;;;;;;;;;5069374;28;20503;-72
2022/08/30 12:29:18;;;;;;;4.10;3.70;;;;;;;;;;5069677;28;20543;-72
2022/08/30 12:31:47;;;;;;;3.50;3.20;;;;;;;;;;5069761;28;20229;-72
2022/08/30 12:34:20;;;;;;;3.13;2.93;;;;;;;;;;5069872;28;20650;-72
2022/08/30 12:36:52;;;;;;;3.80;3.40;;;;;;;;;;5058368;28;20269;-72
2022/08/30 12:39:21;;;;;;;3.35;3.15;;;;;;;;;;5069874;28;20206;-72
2022/08/30 12:41:48;;;;;;;4.40;4.00;;;;;;;;;;5069332;28;20246;-71
2022/08/30 12:44:16;;;;;;;4.00;3.57;;;;;;;;;;5069973;28;20213;-72
2022/08/30 12:46:47;;;;;;;3.50;3.20;;;;;;;;;;5070101;28;20205;-72
2022/08/30 12:49:14;;;;;;;3.63;3.25;;;;;;;;;;5069911;28;20735;-72
2022/08/30 12:51:43;;;;;;;4.13;3.73;;;;;;;;;;5069292;28;20249;-72
2022/08/30 12:54:16;;;;;;;3.70;3.40;;;;;;;;;;5069226;28;20199;-73
2022/08/30 12:57:01;;;;;;;3.75;3.17;;;;;;;;;;5069851;28;20746;-73
2022/08/30 12:59:50;;;;;;;3.05;2.85;;;;;;;;;;5069714;28;20203;-72
2022/08/30 13:02:18;;;;;;;3.38;3.08;;;;;;;;;;5069546;28;20661;-72
2022/08/30 13:04:47;;;;;;;4.05;3.65;;;;;;;;;;5070143;28;20203;-72
2022/08/30 13:07:26;;;;;;;4.07;3.77;;;;;;;;;;5069372;28;20668;-72
2022/08/30 13:10:00;;;;;;;3.65;3.35;;;;;;;;;;5069081;28;20199;-72
2022/08/30 13:12:28;;;;;;;3.45;3.10;;;;;;;;;;5057455;28;20222;-72
2022/08/30 13:15:09;;;;;;;3.25;2.95;;;;;;;;;;5069141;28;20210;-72
2022/08/30 13:17:37;;;;;;;3.55;3.20;;;;;;;;;;5069678;28;20298;-72
2022/08/30 13:20:05;;;;;;;4.10;3.80;;;;;;;;;;5068912;28;20621;-70
2022/08/30 13:22:35;;;;;;;3.85;3.55;;;;;;;;;;5069307;28;20211;-72
2022/08/30 13:25:03;;;;;;;3.80;3.40;;;;;;;;;;5068666;28;20765;-72
2022/08/30 13:27:30;;;;;;;3.17;2.88;;;;;;;;;;5069524;28;20558;-72
2022/08/30 13:29:58;;;;;;;3.63;3.33;;;;;;;;;;5072206;28;20203;-72
2022/08/30 13:32:25;;;;;;;4.05;3.50;;;;;;;;;;5072927;28;20223;-72
2022/08/30 13:34:52;;;;;;;3.70;3.22;;;;;;;;;;5072719;28;20630;-72
2022/08/30 13:37:21;;;;;;;3.65;3.35;;;;;;;;;;5073037;28;20199;-72
2022/08/30 13:39:50;;;;;;;3.67;3.38;;;;;;;;;;5072371;28;20199;-71
2022/08/30 13:42:17;;;;;;;3.42;3.05;;;;;;;;;;5072922;28;20614;-71
2022/08/30 13:44:44;;;;;;;3.72;3.42;;;;;;;;;;5073229;28;20229;-71
2022/08/30 13:47:12;;;;;;;3.83;3.53;;;;;;;;;;5072554;28;20195;-71
2022/08/30 13:49:41;;;;;;;4.68;4.38;;;;;;;;;;5072688;28;20221;-71
2022/08/30 13:52:09;;;;;;;3.90;3.58;;;;;;;;;;5072199;28;20507;-71
2022/08/30 13:54:36;;;;;;;3.80;3.50;;;;;;;;;;5072690;28;20238;-71
2022/08/30 13:57:06;;;;;;;3.40;3.20;;;;;;;;;;5072570;28;20289;-70
2022/08/30 13:59:33;;;;;;;3.33;3.03;;;;;;;;;;5072394;28;20210;-71
2022/08/30 14:02:01;;;;;;;4.22;3.83;;;;;;;;;;5072244;28;20210;-71
2022/08/30 14:04:28;;;;;;;4.00;3.70;;;;;;;;;;5072574;28;20207;-71
2022/08/30 14:06:55;;;;;;;3.35;3.05;;;;;;;;;;5071781;28;20203;-71
2022/08/30 14:09:22;;;;;;;4.68;3.67;;;20.20;99.90;;;;;;5072182;28;20242;-71
2022/08/30 14:11:49;;;;;;;3.80;3.50;;;29.30;1.00;;;;;;5071894;28;20571;-71
2022/08/30 14:14:17;;;;;;;3.87;3.57;;;28.90;1.00;;;;;;5072518;28;20579;-70
2022/08/30 14:16:45;;;;;;;3.97;3.57;;;28.80;1.00;;;;;;5072540;28;20221;-73
2022/08/30 14:19:14;;;;;;;4.23;3.83;;;28.80;1.00;;;;;;5072380;28;20206;-73
2022/08/30 14:21:42;;;;;;;4.57;3.10;;;28.70;1.00;;;;;;5072059;28;20232;-72
2022/08/30 14:24:09;;;;;;;3.63;3.33;;;28.80;1.00;;;;;;5071751;28;20231;-72
2022/08/30 14:26:39;;;;;;;3.77;3.47;;;28.90;1.00;;;;;;5072727;28;20198;-72
2022/08/30 14:29:08;;;;;;;4.53;4.10;;;28.90;1.00;;;;;;5071995;28;20199;-72
2022/08/30 14:31:37;;;;;;;3.63;3.33;;;28.90;1.00;;;;;;5071641;28;20203;-72
2022/08/30 14:34:05;;;;;;;4.50;3.90;;;29.40;1.00;;;;;;5071617;28;20314;-72
2022/08/30 14:36:34;;;;;;;3.93;3.53;;;29.80;1.00;;;;;;5072221;28;20195;-71
2022/08/30 14:39:01;;;;;;;3.60;3.30;;;30.50;1.00;;;;;;5071523;28;20268;-72
2022/08/30 14:41:29;;;;;;;3.95;3.33;;;30.70;1.00;;;;;;5071621;28;20207;-72
2022/08/30 14:43:56;;;;;;;4.32;3.92;;;;;;;;;;5071994;28;20699;-72